Time;durP1;ratioP1;P1;durP2;ratioP2;P2;SDS_P1;SDS_P2;PMS_P1;PMS_P2;Temp;Humidity;BMP_temperature;BMP_pressure;BME280_temperature;BME280_humidity;BME280_pressure;Samples;Min_cycle;Max_cycle;Signal;HPM_P1;HPM_P2
2022/12/19 00:01:48;;;;;;;9.73;5.05;;;;;;;-7.86;65.50;100597.47;4995334;28;20036;-78
2022/12/19 00:04:18;;;;;;;9.05;4.82;;;;;;;-7.71;66.00;100595.16;4986534;28;20045;-77
2022/12/19 00:06:43;;;;;;;9.10;5.25;;;;;;;-8.00;66.02;100592.88;4999936;28;20041;-79
2022/12/19 00:09:08;;;;;;;6.30;4.45;;;;;;;-7.94;66.21;100591.31;4975361;28;20034;-80
2022/12/19 00:11:33;;;;;;;6.30;3.67;;;;;;;-7.70;66.19;100594.31;4992039;28;20132;-79
2022/12/19 00:13:57;;;;;;;7.55;5.10;;;;;;;-8.09;66.36;100601.38;4999471;28;20060;-78
2022/12/19 00:16:25;;;;;;;6.95;4.15;;;;;;;-8.03;66.49;100598.03;5002400;28;20044;-79
2022/12/19 00:18:52;;;;;;;8.45;5.05;;;;;;;-7.82;65.68;100594.13;5014669;28;20103;-77
2022/12/19 00:21:20;;;;;;;10.20;4.80;;;;;;;-7.72;66.01;100587.38;4994192;28;20063;-78
2022/12/19 00:23:46;;;;;;;9.35;5.43;;;;;;;-7.73;65.43;100570.09;4983636;28;20094;-79
2022/12/19 00:26:13;;;;;;;6.47;4.28;;;;;;;-7.87;65.42;100584.50;5000501;28;20036;-75
2022/12/19 00:28:38;;;;;;;9.75;4.43;;;;;;;-7.79;64.43;100586.41;4982687;28;20049;-73
2022/12/19 00:31:03;;;;;;;9.23;4.43;;;;;;;-7.61;65.31;100588.41;5016265;28;20048;-72
2022/12/19 00:33:28;;;;;;;8.32;5.20;;;;;;;-7.79;65.31;100596.75;4983440;28;20051;-76
2022/12/19 00:36:00;;;;;;;6.03;4.10;;;;;;;-7.39;65.59;100600.88;4999126;28;20041;-75
2022/12/19 00:38:25;;;;;;;7.22;3.95;;;;;;;-7.23;65.74;100595.94;5014085;28;20059;-76
2022/12/19 00:40:50;;;;;;;7.50;4.18;;;;;;;-7.25;64.78;100592.44;5014640;28;20056;-72
2022/12/19 00:43:16;;;;;;;6.40;3.80;;;;;;;-7.33;64.95;100600.06;4999023;28;20052;-80
2022/12/19 00:45:40;;;;;;;11.77;5.28;;;;;;;-7.41;64.90;100594.78;5011361;28;20782;-74
2022/12/19 00:48:05;;;;;;;11.07;4.78;;;;;;;-7.33;64.74;100593.19;4995155;28;20060;-77
2022/12/19 00:50:33;;;;;;;8.25;4.90;;;;;;;-7.27;64.96;100592.41;4997404;28;20029;-75
2022/12/19 00:52:57;;;;;;;7.72;4.55;;;;;;;-7.29;65.14;100586.34;4998744;28;20415;-74
2022/12/19 00:55:23;;;;;;;7.47;4.40;;;;;;;-7.21;65.28;100595.09;4998072;28;20499;-77
2022/12/19 00:57:49;;;;;;;8.68;4.38;;;;;;;-7.12;65.20;100597.84;5017934;28;20510;-76
2022/12/19 01:00:14;;;;;;;9.25;5.00;;;;;;;-7.19;65.20;100590.81;4996767;28;20041;-77
2022/12/19 01:02:39;;;;;;;8.43;5.28;;;;;;;-7.42;65.87;100598.22;4995404;28;20055;-76
2022/12/19 01:05:04;;;;;;;8.48;4.75;;;;;;;-7.25;66.38;100585.53;4994715;28;20041;-77
2022/12/19 01:07:29;;;;;;;8.15;4.57;;;;;;;-7.22;66.71;100592.50;4976889;28;20040;-73
2022/12/19 01:09:54;;;;;;;8.13;4.85;;;;;;;-7.32;66.45;100594.91;4992592;28;20029;-73
2022/12/19 01:15:02;;;;;;;6.85;3.85;;;;;;;-7.27;67.48;100589.81;5015695;28;20041;-73
2022/12/19 01:17:28;;;;;;;7.55;4.68;;;;;;;-7.18;67.85;100592.56;5015021;28;20044;-72
2022/12/19 01:19:53;;;;;;;6.90;4.35;;;;;;;-7.05;67.67;100602.25;5016528;28;20049;-77
2022/12/19 01:22:18;;;;;;;9.43;4.47;;;;;;;-7.14;67.45;100588.28;5036547;28;20109;-77
2022/12/19 01:24:44;;;;;;;7.38;4.22;;;;;;;-7.18;67.02;100584.78;5014845;28;20049;-73
2022/12/19 01:27:08;;;;;;;7.45;4.60;;;;;;;-7.22;67.89;100598.53;4998659;28;20033;-72
2022/12/19 01:29:33;;;;;;;8.32;4.75;;;;;;;-7.11;67.36;100598.72;5000954;28;20507;-79
2022/12/19 01:31:58;;;;;;;6.63;3.90;;;;;;;-7.03;68.28;100585.00;5035646;28;20040;-73
2022/12/19 01:34:23;;;;;;;5.63;3.72;;;;;;;-7.13;68.35;100590.91;5000686;28;20110;-77
2022/12/19 01:36:47;;;;;;;6.03;4.13;;;;;;;-7.18;68.42;100577.00;4981428;28;20037;-74
2022/12/19 01:39:12;;;;;;;8.57;4.65;;;;;;;-7.11;67.86;100584.00;4983391;28;20098;-70
2022/12/19 01:41:37;;;;;;;7.70;4.20;;;;;;;-6.98;67.97;100575.56;5034440;28;20041;-68
2022/12/19 01:44:07;;;;;;;8.85;4.50;;;;;;;-7.00;68.05;100581.59;5016319;28;20106;-69
2022/12/19 01:46:36;;;;;;;10.65;5.32;;;;;;;-7.01;68.16;100583.31;4992644;28;20029;-68
2022/12/19 01:49:02;;;;;;;8.77;4.70;;;;;;;-7.16;68.15;100585.69;5013800;28;20045;-70
2022/12/19 01:51:39;;;;;;;8.02;4.85;;;;;;;-6.96;68.13;100588.53;5017105;28;20456;-69
2022/12/19 01:54:08;;;;;;;8.32;4.15;;;;;;;-6.86;68.32;100586.94;4999332;28;20044;-66
2022/12/19 01:56:40;;;;;;;7.88;4.57;;;;;;;-6.79;67.95;100578.41;5033081;28;20045;-71
2022/12/19 01:59:12;;;;;;;8.27;4.90;;;;;;;-6.85;68.14;100570.53;5021832;28;20055;-69
2022/12/19 02:01:40;;;;;;;9.68;4.97;;;;;;;-7.13;68.35;100580.56;5016121;28;20063;-66
2022/12/19 02:04:06;;;;;;;8.23;4.28;;;;;;;-7.07;68.53;100571.97;5010145;28;20047;-66
2022/12/19 02:06:33;;;;;;;9.10;4.85;;;;;;;-6.90;68.70;100574.81;5019477;28;20175;-67
2022/12/19 02:08:58;;;;;;;9.95;5.18;;;;;;;-6.97;68.99;100559.16;5036835;28;20045;-68
2022/12/19 02:11:25;;;;;;;9.05;5.15;;;;;;;-6.97;68.64;100560.88;5000560;28;20487;-67
2022/12/19 02:13:51;;;;;;;8.98;5.50;;;;;;;-7.00;68.38;100555.69;5036957;28;20041;-67
2022/12/19 02:16:34;;;;;;;7.13;4.65;;;;;;;-6.81;68.45;100541.22;5007328;28;20506;-68
2022/12/19 02:19:36;;;;;;;8.57;5.07;;;;;;;-6.90;68.43;100548.91;5007059;28;20087;-67
2022/12/19 02:22:14;;;;;;;11.43;5.43;;;;;;;-7.16;68.97;100546.81;5023502;28;20118;-68
2022/12/19 02:25:05;;;;;;;11.10;5.65;;;;;;;-7.27;69.55;100550.97;5020114;28;20040;-68
2022/12/19 02:28:05;;;;;;;10.90;5.50;;;;;;;-7.03;70.04;100543.53;5000545;28;20529;-68
2022/12/19 02:30:41;;;;;;;8.15;4.65;;;;;;;-6.99;69.96;100545.31;5034537;28;20044;-66
2022/12/19 02:33:20;;;;;;;10.20;5.32;;;;;;;-7.02;70.05;100545.28;5020263;28;20420;-69
2022/12/19 02:35:58;;;;;;;10.48;5.50;;;;;;;-7.03;70.06;100535.78;5036988;28;20037;-68
2022/12/19 02:38:39;;;;;;;8.15;5.22;;;;;;;-7.05;69.91;100541.78;5037958;28;20048;-66
2022/12/19 02:41:27;;;;;;;14.35;6.00;;;;;;;-6.99;70.77;100529.75;5020024;28;20064;-66
2022/12/19 02:43:55;;;;;;;11.23;5.25;;;;;;;-7.10;70.68;100533.06;5001108;28;20496;-66
2022/12/19 02:46:24;;;;;;;8.38;5.20;;;;;;;-6.92;71.45;100527.25;4974958;28;20723;-66
2022/12/19 02:48:50;;;;;;;8.65;4.75;;;;;;;-6.97;70.83;100525.47;5013838;28;20048;-66
2022/12/19 02:51:15;;;;;;;10.82;6.03;;;;;;;-6.98;71.30;100515.94;5006233;28;20090;-68
2022/12/19 02:53:41;;;;;;;8.55;5.55;;;;;;;-6.93;71.38;100515.16;4977854;28;20047;-66
2022/12/19 02:56:05;;;;;;;13.00;5.97;;;;;;;-6.87;71.38;100515.22;5031845;28;20041;-66
2022/12/19 02:58:51;;;;;;;9.77;5.68;;;;;;;-6.71;71.83;100506.78;4998569;28;20047;-67
2022/12/19 03:01:27;;;;;;;11.68;5.32;;;;;;;-6.73;71.88;100513.66;5021675;28;20156;-65
2022/12/19 03:04:20;;;;;;;7.63;4.53;;;;;;;-6.56;71.66;100519.06;5010942;28;20514;-69
2022/12/19 03:07:00;;;;;;;11.48;6.20;;;;;;;-6.61;71.53;100509.50;5027620;28;20040;-67
2022/12/19 03:09:47;;;;;;;12.18;5.15;;;;;;;-6.50;71.51;100512.22;5021373;28;20503;-71
2022/12/19 03:12:18;;;;;;;11.85;5.47;;;;;;;-6.52;70.99;100513.91;5009722;28;20481;-69
2022/12/19 03:14:46;;;;;;;12.10;5.93;;;;;;;-6.43;70.42;100505.38;5037734;28;20632;-70
2022/12/19 03:17:11;;;;;;;9.15;4.68;;;;;;;-6.38;70.45;100501.09;5019934;28;20703;-75
2022/12/19 03:19:38;;;;;;;10.48;5.10;;;;;;;-6.42;69.72;100497.59;5021123;28;20084;-77
2022/12/19 03:22:03;;;;;;;12.68;5.70;;;;;;;-6.49;69.88;100501.00;5021413;28;20438;-74
2022/12/19 03:24:27;;;;;;;11.93;4.70;;;;;;;-6.41;70.18;100507.13;5001523;28;20453;-76
2022/12/19 03:26:58;;;;;;;13.15;5.63;;;;;;;-6.34;70.06;100502.88;4981564;28;20153;-73
2022/12/19 03:29:34;;;;;;;11.77;5.38;;;;;;;-6.28;70.08;100508.13;5028699;28;20048;-76
2022/12/19 03:32:04;;;;;;;7.22;4.47;;;;;;;-6.23;70.03;100501.25;5035624;28;20040;-74
2022/12/19 03:35:17;;;;;;;8.18;4.63;;;;;;;-6.24;69.67;100487.41;5016272;28;20721;-73
2022/12/19 03:37:43;;;;;;;12.23;5.85;;;;;;;-6.28;69.85;100497.75;5006467;28;20536;-75
2022/12/19 03:40:17;;;;;;;9.93;6.13;;;;;;;-6.19;69.55;100481.38;5002662;28;20612;-76
2022/12/19 03:45:41;;;;;;;10.32;5.38;;;;;;;-6.35;70.00;100475.19;5016142;28;20526;-72
2022/12/19 03:48:10;;;;;;;11.80;5.63;;;;;;;-6.35;69.45;100459.63;4997206;28;20029;-71
2022/12/19 03:50:46;;;;;;;12.68;6.05;;;;;;;-6.23;70.48;100459.75;5018059;28;20067;-69
2022/12/19 03:53:20;;;;;;;11.30;5.53;;;;;;;-6.15;70.41;100447.69;5007017;28;20127;-68
2022/12/19 03:56:11;;;;;;;10.13;5.03;;;;;;;-6.01;69.89;100461.66;5034361;28;20040;-68
2022/12/19 03:58:39;;;;;;;13.88;5.68;;;;;;;-6.12;69.69;100460.72;4936876;28;20468;-74
2022/12/19 04:01:05;;;;;;;10.20;5.47;;;;;;;-6.16;69.61;100458.94;4910748;28;20633;-72
2022/12/19 04:03:30;;;;;;;9.73;5.53;;;;;;;-6.19;69.84;100466.69;4904910;28;20429;-72
2022/12/19 04:05:57;;;;;;;9.13;5.18;;;;;;;-6.27;69.38;100468.34;4937034;28;20043;-72
2022/12/19 04:08:23;;;;;;;9.20;5.13;;;;;;;-6.19;69.17;100468.41;4936821;28;20042;-73
2022/12/19 04:10:54;;;;;;;10.30;5.40;;;;;;;-6.29;69.62;100464.84;4904023;28;20101;-67
2022/12/19 04:13:26;;;;;;;10.63;5.18;;;;;;;-6.15;69.95;100457.22;4935948;28;20595;-67
2022/12/19 04:16:19;;;;;;;9.23;4.57;;;;;;;-6.04;69.83;100443.47;4920427;28;20062;-69
2022/12/19 04:18:49;;;;;;;9.35;4.47;;;;;;;-5.97;70.09;100436.59;4919735;28;20568;-70
2022/12/19 04:21:18;;;;;;;9.82;5.20;;;;;;;-5.95;69.61;100440.06;4935662;28;20055;-70
2022/12/19 04:23:48;;;;;;;10.25;4.75;;;;;;;-6.08;69.66;100452.06;4935586;28;20090;-71
2022/12/19 04:26:15;;;;;;;12.88;5.55;;;;;;;-6.25;69.38;100444.16;4934732;28;20073;-70
2022/12/19 04:28:45;;;;;;;12.35;5.43;;;;;;;-6.27;70.02;100432.91;4935889;28;20057;-69
2022/12/19 04:31:13;;;;;;;11.18;5.95;;;;;;;-6.36;70.08;100450.97;4935613;28;20050;-69
2022/12/19 04:33:37;;;;;;;11.93;5.20;;;;;;;-6.32;70.06;100446.69;4919415;28;20038;-72
2022/12/19 04:36:02;;;;;;;11.30;6.10;;;;;;;-6.29;69.93;100464.84;5005448;28;20131;-73
2022/12/19 04:38:26;;;;;;;10.32;5.60;;;;;;;-6.35;70.71;100468.28;5035570;28;20051;-71
2022/12/19 04:40:51;;;;;;;12.77;5.97;;;;;;;-6.26;70.65;100473.56;5034567;28;20510;-72
2022/12/19 04:43:16;;;;;;;7.68;5.00;;;;;;;-6.20;70.95;100451.09;5017835;28;20063;-73
2022/12/19 04:45:41;;;;;;;9.60;5.57;;;;;;;-6.07;71.08;100460.72;5034778;28;20044;-73
2022/12/19 04:48:05;;;;;;;15.07;5.68;;;;;;;-6.07;71.08;100471.09;5003581;28;20041;-72
2022/12/19 04:50:31;;;;;;;14.52;5.78;;;;;;;-6.09;70.77;100472.81;5035671;28;20059;-72
2022/12/19 04:52:56;;;;;;;10.82;5.82;;;;;;;-6.01;71.34;100466.00;5014384;28;20419;-72
2022/12/19 04:55:21;;;;;;;11.85;5.55;;;;;;;-5.96;71.45;100466.88;5013197;28;20411;-73
2022/12/19 04:57:46;;;;;;;11.90;5.82;;;;;;;-5.93;71.42;100467.78;5035518;28;20075;-72
2022/12/19 05:00:11;;;;;;;9.60;5.43;;;;;;;-5.95;71.52;100471.22;5004442;28;20045;-72
2022/12/19 05:02:37;;;;;;;8.85;5.30;;;;;;;-6.07;71.30;100474.56;5016688;28;20118;-73
2022/12/19 05:05:01;;;;;;;15.35;6.63;;;;;;;-6.31;71.83;100475.22;5009117;28;20403;-74
2022/12/19 05:07:28;;;;;;;7.68;4.70;;;;;;;-6.22;72.17;100473.59;5035047;28;20033;-73
2022/12/19 05:09:53;;;;;;;10.75;4.97;;;;;;;-6.15;72.35;100472.78;5035425;28;20044;-72
2022/12/19 05:12:17;;;;;;;7.15;4.25;;;;;;;-5.91;72.63;100470.41;5034996;28;20498;-71
2022/12/19 05:14:42;;;;;;;10.90;5.95;;;;;;;-6.02;71.23;100459.06;5000628;28;20040;-72
2022/12/19 05:17:06;;;;;;;18.92;5.85;;;;;;;-6.10;71.11;100473.72;5005013;28;20126;-72
2022/12/19 05:19:31;;;;;;;11.32;6.93;;;;;;;-6.20;71.93;100488.28;5033528;28;20048;-74
2022/12/19 05:21:55;;;;;;;10.27;4.93;;;;;;;-5.96;71.63;100477.25;5034890;28;20052;-71
2022/12/19 05:24:21;;;;;;;12.35;5.78;;;;;;;-6.09;71.76;100465.91;5033598;28;20399;-72
2022/12/19 05:26:47;;;;;;;10.45;5.18;;;;;;;-5.94;71.87;100467.78;5035170;28;20732;-74
2022/12/19 05:29:12;;;;;;;8.10;4.70;;;;;;;-5.95;71.33;100453.03;5033684;28;20148;-73
2022/12/19 05:31:37;;;;;;;7.63;4.70;;;;;;;-5.79;71.46;100451.41;5016695;28;20127;-73
2022/12/19 05:34:01;;;;;;;10.40;4.97;;;;;;;-5.76;71.70;100460.09;5034744;28;20423;-73
2022/12/19 05:36:26;;;;;;;13.25;6.15;;;;;;;-6.17;71.49;100454.59;5013123;28;20127;-70
2022/12/19 05:38:51;;;;;;;11.25;4.93;;;;;;;-5.94;71.77;100452.19;5024161;28;20054;-71
2022/12/19 05:41:17;;;;;;;9.38;4.32;;;;;;;-5.98;71.79;100466.03;5035005;28;20885;-75
2022/12/19 05:43:44;;;;;;;10.15;5.88;;;;;;;-5.93;72.23;100461.72;5017036;28;20032;-70
2022/12/19 05:46:08;;;;;;;9.75;5.30;;;;;;;-6.03;72.00;100463.38;5034649;28;20036;-73
2022/12/19 05:48:34;;;;;;;10.85;5.93;;;;;;;-6.05;71.99;100449.50;4999617;28;20057;-69
2022/12/19 05:50:58;;;;;;;12.57;5.90;;;;;;;-5.99;72.64;100459.97;5034707;28;20040;-69
2022/12/19 05:53:23;;;;;;;8.60;4.93;;;;;;;-5.90;72.04;100459.16;5034595;28;20040;-69
2022/12/19 05:55:48;;;;;;;13.05;6.03;;;;;;;-5.82;72.37;100444.47;5016481;28;20032;-69
2022/12/19 05:58:12;;;;;;;10.63;5.93;;;;;;;-5.94;72.35;100450.47;5005723;28;20041;-70
2022/12/19 06:00:37;;;;;;;8.65;4.25;;;;;;;-5.69;72.26;100425.50;5013186;28;20036;-70
2022/12/19 06:03:02;;;;;;;13.30;5.32;;;;;;;-5.62;72.54;100434.19;5034373;28;20094;-69
2022/12/19 06:05:27;;;;;;;7.07;4.28;;;;;;;-5.59;72.22;100429.91;4980284;28;20502;-69
2022/12/19 06:07:52;;;;;;;10.30;4.72;;;;;;;-5.54;72.38;100433.41;5000169;28;20109;-70
2022/12/19 06:10:16;;;;;;;9.70;5.30;;;;;;;-5.52;71.26;100446.38;5034124;28;20055;-69
2022/12/19 06:12:41;;;;;;;11.20;4.45;;;;;;;-5.41;71.68;100451.63;5034154;28;20087;-70
2022/12/19 06:15:06;;;;;;;9.80;5.15;;;;;;;-5.49;71.45;100467.19;5034237;28;20093;-70
2022/12/19 06:17:31;;;;;;;9.70;5.43;;;;;;;-5.67;71.17;100467.94;5016412;28;20067;-69
2022/12/19 06:19:55;;;;;;;9.75;5.10;;;;;;;-5.62;71.26;100467.97;5016076;28;20067;-70
2022/12/19 06:22:20;;;;;;;10.98;5.65;;;;;;;-5.74;71.65;100460.09;4999591;28;20041;-70
2022/12/19 06:24:45;;;;;;;7.72;4.35;;;;;;;-5.64;71.68;100477.47;5034059;28;20079;-71
2022/12/19 06:27:09;;;;;;;8.82;4.97;;;;;;;-5.70;71.91;100472.25;5034475;28;20508;-68
2022/12/19 06:29:34;;;;;;;12.35;6.65;;;;;;;-5.74;72.08;100471.34;5034403;28;20033;-70
2022/12/19 06:31:58;;;;;;;7.80;4.78;;;;;;;-5.63;71.71;100472.28;4999672;28;20045;-69
2022/12/19 06:34:23;;;;;;;9.88;6.10;;;;;;;-5.67;71.61;100461.88;5033918;28;20045;-70
2022/12/19 06:36:48;;;;;;;6.75;3.80;;;;;;;-5.42;71.84;100458.59;5034038;28;20046;-70
2022/12/19 06:39:13;;;;;;;7.47;4.85;;;;;;;-5.37;71.90;100466.41;5013203;28;20036;-71
2022/12/19 06:44:21;;;;;;;11.20;5.57;;;;;;;-5.51;71.23;100463.72;4999144;28;20032;-70
2022/12/19 06:46:46;;;;;;;10.98;5.32;;;;;;;-5.59;71.67;100475.78;5001383;28;20131;-68
2022/12/19 06:49:11;;;;;;;8.90;5.22;;;;;;;-5.44;71.90;100469.84;5038743;28;20049;-70
2022/12/19 06:51:36;;;;;;;11.90;5.82;;;;;;;-5.43;71.24;100461.19;5020784;28;20059;-70
2022/12/19 06:54:00;;;;;;;9.73;6.15;;;;;;;-5.36;71.00;100474.22;5038671;28;20153;-71
2022/12/19 06:56:25;;;;;;;10.40;5.88;;;;;;;-5.38;71.23;100459.47;5015119;28;20040;-69
2022/12/19 06:58:50;;;;;;;10.88;6.07;;;;;;;-5.29;71.64;100459.50;5043226;28;20066;-70
2022/12/19 07:01:33;;;;;;;10.32;5.07;;;;;;;-5.24;70.91;100453.50;5038400;28;20032;-70
2022/12/19 07:03:58;;;;;;;10.35;6.03;;;;;;;-5.38;71.42;100449.94;4998030;28;20045;-73
2022/12/19 07:06:22;;;;;;;10.68;6.18;;;;;;;-5.30;71.68;100436.97;4979932;28;20072;-71
2022/12/19 07:08:47;;;;;;;11.57;5.78;;;;;;;-5.10;71.16;100434.50;4976139;28;20469;-69
2022/12/19 07:11:11;;;;;;;13.52;6.82;;;;;;;-5.10;70.88;100432.75;4979813;28;20412;-69
2022/12/19 07:13:36;;;;;;;12.13;6.18;;;;;;;-5.18;71.80;100452.63;4962902;28;20112;-69
2022/12/19 07:16:04;;;;;;;11.73;5.60;;;;;;;-5.22;71.80;100437.91;4962344;28;20033;-67
2022/12/19 07:18:31;;;;;;;10.63;5.25;;;;;;;-5.06;71.94;100436.22;4959313;28;20144;-67
2022/12/19 07:20:56;;;;;;;9.27;4.95;;;;;;;-4.89;71.28;100440.66;4977445;28;20053;-68
2022/12/19 07:23:21;;;;;;;9.82;6.07;;;;;;;-5.08;71.00;100441.44;4978734;28;20060;-68
2022/12/19 07:25:46;;;;;;;12.82;5.93;;;;;;;-5.12;71.01;100452.69;4978613;28;20033;-68
2022/12/19 07:28:11;;;;;;;13.43;6.15;;;;;;;-5.08;71.74;100446.63;4995036;28;20051;-68
2022/12/19 07:30:35;;;;;;;11.82;5.85;;;;;;;-4.99;71.23;100451.88;4978335;28;20053;-69
2022/12/19 07:33:00;;;;;;;12.05;6.35;;;;;;;-4.90;71.44;100458.84;4962260;28;20470;-69
2022/12/19 07:35:25;;;;;;;11.10;5.40;;;;;;;-4.87;71.15;100459.72;5006292;28;20521;-68
2022/12/19 07:37:51;;;;;;;8.45;5.13;;;;;;;-4.83;71.41;100461.44;5004681;28;20044;-67
2022/12/19 07:40:16;;;;;;;10.07;5.82;;;;;;;-4.84;71.66;100479.66;5015932;28;20037;-69
2022/12/19 07:42:41;;;;;;;8.18;5.35;;;;;;;-4.68;72.14;100483.19;4989320;28;20048;-68
2022/12/19 07:45:06;;;;;;;11.98;5.45;;;;;;;-4.68;71.53;100485.78;5012806;28;20051;-68
2022/12/19 07:47:30;;;;;;;8.40;5.05;;;;;;;-4.64;71.14;100470.22;5015309;28;20551;-69
2022/12/19 07:49:55;;;;;;;9.52;6.28;;;;;;;-4.66;70.97;100478.88;5033267;28;20499;-69
2022/12/19 07:52:20;;;;;;;13.70;6.28;;;;;;;-4.56;71.26;100470.22;4984389;28;20044;-71
2022/12/19 07:54:44;;;;;;;8.75;5.65;;;;;;;-4.59;71.31;100462.41;5027246;28;20120;-70
2022/12/19 07:57:09;;;;;;;11.75;6.07;;;;;;;-4.69;71.11;100463.22;5004275;28;20041;-70
2022/12/19 07:59:33;;;;;;;14.75;6.38;;;;;;;-4.46;71.53;100467.63;5036452;28;20040;-70
2022/12/19 08:01:58;;;;;;;13.55;6.88;;;;;;;-4.49;71.48;100456.34;5036611;28;20045;-73
2022/12/19 08:04:23;;;;;;;13.30;7.85;;;;;;;-4.58;71.57;100466.75;5018746;28;20177;-74
2022/12/19 08:06:47;;;;;;;10.70;6.45;;;;;;;-4.64;72.17;100456.34;5036665;28;20047;-75
2022/12/19 08:09:12;;;;;;;12.48;6.60;;;;;;;-4.61;72.14;100457.19;5035377;28;20040;-75
2022/12/19 08:11:37;;;;;;;14.43;6.72;;;;;;;-4.48;72.26;100447.69;5015242;28;20041;-75
2022/12/19 08:14:02;;;;;;;10.52;5.75;;;;;;;-4.39;72.58;100445.97;5031713;28;20094;-75
2022/12/19 08:16:27;;;;;;;11.55;6.25;;;;;;;-4.53;72.66;100458.09;5018208;28;20048;-74
2022/12/19 08:18:52;;;;;;;9.65;4.97;;;;;;;-4.39;72.67;100445.97;5034988;28;20441;-73
2022/12/19 08:21:17;;;;;;;12.68;6.15;;;;;;;-4.27;72.59;100436.44;5021361;28;20060;-75
2022/12/19 08:23:41;;;;;;;11.50;6.30;;;;;;;-4.39;71.78;100450.28;5016026;28;20045;-74
2022/12/19 08:26:23;;;;;;;10.27;5.65;;;;;;;-4.36;72.58;100442.50;4998643;28;20040;-75
2022/12/19 08:28:48;;;;;;;15.18;6.60;;;;;;;-4.46;72.49;100441.63;4982075;28;20068;-75
2022/12/19 08:31:15;;;;;;;8.73;5.30;;;;;;;-4.29;72.70;100435.59;5014831;28;20079;-76
2022/12/19 08:33:41;;;;;;;11.05;6.32;;;;;;;-4.28;72.42;100437.28;4998354;28;20032;-74
2022/12/19 08:36:08;;;;;;;10.57;6.35;;;;;;;-4.17;72.09;100438.16;5015776;28;20091;-72
2022/12/19 08:38:34;;;;;;;14.48;5.43;;;;;;;-4.17;72.27;100432.97;5015965;28;20174;-72
2022/12/19 08:40:59;;;;;;;11.15;5.35;;;;;;;-4.03;72.03;100439.91;4978392;28;20045;-71
2022/12/19 08:43:25;;;;;;;13.90;6.88;;;;;;;-4.09;72.11;100442.53;4978367;28;20041;-72
2022/12/19 08:45:49;;;;;;;9.90;5.28;;;;;;;-3.95;71.93;100434.69;5006921;28;20079;-73
2022/12/19 08:48:15;;;;;;;12.10;5.93;;;;;;;-3.87;71.58;100434.72;5015889;28;20069;-73
2022/12/19 08:50:39;;;;;;;10.13;5.32;;;;;;;-3.80;71.70;100444.25;4982034;28;20044;-72
2022/12/19 08:53:04;;;;;;;10.02;5.72;;;;;;;-3.92;71.17;100434.69;4995517;28;20044;-73
2022/12/19 08:55:29;;;;;;;9.73;5.78;;;;;;;-3.97;71.95;100436.47;4996776;28;20072;-72
2022/12/19 08:57:53;;;;;;;12.48;5.75;;;;;;;-3.97;71.98;100428.66;5017537;28;20037;-73
2022/12/19 09:00:18;;;;;;;9.05;5.13;;;;;;;-3.78;72.13;100432.09;5000815;28;20085;-72
2022/12/19 09:02:42;;;;;;;12.75;6.18;;;;;;;-3.78;72.15;100426.88;4988056;28;20037;-73
2022/12/19 09:05:07;;;;;;;11.85;7.13;;;;;;;-3.89;72.15;100423.44;5012442;28;20087;-74
2022/12/19 09:07:34;;;;;;;9.93;5.63;;;;;;;-3.74;72.33;100423.41;4981027;28;20607;-74
2022/12/19 09:09:58;;;;;;;15.38;6.20;;;;;;;-3.71;72.16;100419.06;5005287;28;20040;-73
2022/12/19 09:12:23;;;;;;;9.50;5.78;;;;;;;-3.74;72.08;100432.09;5013771;28;20045;-73
2022/12/19 09:14:49;;;;;;;8.77;4.97;;;;;;;-3.65;71.87;100436.44;4990230;28;20041;-74
2022/12/19 09:17:14;;;;;;;11.70;6.63;;;;;;;-3.64;72.25;100438.16;5009355;28;20895;-74
2022/12/19 09:19:39;;;;;;;8.52;5.38;;;;;;;-3.49;72.08;100427.69;5016089;28;20390;-72
2022/12/19 09:22:03;;;;;;;14.95;6.15;;;;;;;-3.68;71.94;100429.47;5015513;28;20057;-73
2022/12/19 09:24:28;;;;;;;15.88;6.68;;;;;;;-3.77;72.06;100416.47;4997396;28;20045;-73
2022/12/19 09:26:53;;;;;;;10.10;6.43;;;;;;;-3.77;72.84;100416.47;4962080;28;20033;-73
2022/12/19 09:29:18;;;;;;;11.18;6.78;;;;;;;-3.73;72.67;100419.94;5010148;28;20048;-73
2022/12/19 09:31:42;;;;;;;11.73;5.95;;;;;;;-3.74;73.04;100426.03;4993904;28;20485;-73
2022/12/19 09:34:07;;;;;;;10.15;6.38;;;;;;;-3.69;72.79;100432.94;4989936;28;20828;-73
2022/12/19 09:36:31;;;;;;;21.02;5.60;;;;;;;-3.64;73.14;100425.13;5015196;28;20045;-73
2022/12/19 09:38:57;;;;;;;11.57;5.57;;;;;;;-3.81;73.02;100430.34;4997461;28;20059;-72
2022/12/19 09:41:37;;;;;;;10.65;5.78;;;;;;;-3.84;73.70;100432.13;4997733;28;20045;-72
2022/12/19 09:44:27;;;;;;;11.55;6.22;;;;;;;-3.70;73.57;100436.41;5015359;28;20549;-72
2022/12/19 09:46:59;;;;;;;14.73;5.85;;;;;;;-3.67;73.47;100422.53;5015045;28;20040;-74
2022/12/19 09:49:35;;;;;;;10.57;5.47;;;;;;;-3.59;72.97;100418.16;4997266;28;20199;-73
2022/12/19 09:52:17;;;;;;;13.05;6.80;;;;;;;-3.61;73.09;100414.69;4994962;28;20527;-73
2022/12/19 09:54:51;;;;;;;14.43;6.35;;;;;;;-3.55;73.14;100424.25;5015336;28;20049;-74
2022/12/19 09:57:42;;;;;;;13.20;6.32;;;;;;;-3.47;73.11;100427.69;5014010;28;20556;-74
2022/12/19 10:00:15;;;;;;;12.48;7.50;;;;;;;-3.46;73.14;100432.91;4961650;28;20062;-73
2022/12/19 10:02:54;;;;;;;15.23;6.75;;;;;;;-3.37;72.47;100427.66;4956924;28;20050;-73
2022/12/19 10:05:27;;;;;;;13.57;6.60;;;;;;;-3.28;72.65;100420.72;4973974;28;20092;-74
2022/12/19 10:07:52;;;;;;;11.50;6.38;;;;;;;-3.35;72.31;100418.09;4944151;28;20117;-74
2022/12/19 10:10:39;;;;;;;11.10;6.97;;;;;;;-3.25;72.46;100428.50;4973490;28;20046;-74
2022/12/19 10:13:28;;;;;;;14.25;6.85;;;;;;;-3.10;72.43;100418.91;4973736;28;20096;-75
2022/12/19 10:16:03;;;;;;;10.15;5.40;;;;;;;-2.95;72.50;100403.19;4975499;28;20069;-74
2022/12/19 10:19:00;;;;;;;12.38;6.10;;;;;;;-2.92;72.28;100423.16;4975487;28;20054;-74
2022/12/19 10:21:28;;;;;;;11.40;5.43;;;;;;;-2.83;72.08;100427.50;4944449;28;20118;-75
2022/12/19 10:24:02;;;;;;;12.20;6.55;;;;;;;-2.96;71.83;100418.84;4956694;28;20636;-75
2022/12/19 10:26:37;;;;;;;16.05;6.88;;;;;;;-2.99;71.69;100419.72;4942614;28;20066;-74
2022/12/19 10:29:02;;;;;;;12.63;6.40;;;;;;;-2.86;72.27;100432.72;4958161;28;20142;-74
2022/12/19 10:31:36;;;;;;;11.52;6.32;;;;;;;-2.84;71.96;100431.84;4958360;28;20133;-74
2022/12/19 10:34:13;;;;;;;;;;;;;;;-2.90;71.66;100424.03;4959211;28;20046;-77
2022/12/19 10:36:46;;;;;;;10.60;6.25;;;;;;;-2.84;72.12;100426.63;4969709;28;19932;-73
2022/12/19 10:39:30;;;;;;;10.50;6.32;;;;;;;-2.85;72.22;100424.88;4998701;28;20524;-72
2022/12/19 10:42:06;;;;;;;10.25;5.28;;;;;;;-2.78;71.69;100420.47;4986865;28;20047;-73
2022/12/19 10:44:38;;;;;;;14.73;6.97;;;;;;;-2.78;71.77;100420.47;5000869;28;20597;-72
2022/12/19 10:47:02;;;;;;;18.15;7.22;;;;;;;-2.84;71.73;100426.63;4986915;28;20094;-71
2022/12/19 10:49:27;;;;;;;10.20;6.57;;;;;;;-2.81;71.11;100437.00;4981682;28;20133;-70
2022/12/19 10:51:54;;;;;;;13.52;7.25;;;;;;;-2.96;71.60;100430.16;4980907;28;20038;-76
2022/12/19 10:54:19;;;;;;;16.65;6.50;;;;;;;-3.01;72.44;100426.69;4980839;28;20496;-75
2022/12/19 10:56:44;;;;;;;17.38;8.02;;;;;;;-3.18;72.41;100425.88;4980532;28;20524;-73
2022/12/19 10:59:17;;;;;;;13.93;7.72;;;;;;;-3.09;73.10;100427.59;5003172;28;20499;-74
2022/12/19 11:01:42;;;;;;;11.95;6.18;;;;;;;-2.97;72.84;100431.03;5017329;28;20096;-74
2022/12/19 11:04:29;;;;;;;10.95;6.30;;;;;;;-2.73;72.72;100424.81;5018791;28;20502;-74
2022/12/19 11:06:59;;;;;;;13.85;7.13;;;;;;;-2.80;72.59;100424.84;5018652;28;20060;-75
2022/12/19 11:09:39;;;;;;;13.02;7.40;;;;;;;-2.74;72.08;100435.25;4983857;28;20050;-75
2022/12/19 11:12:07;;;;;;;12.75;7.70;;;;;;;-2.91;72.20;100435.31;5009825;28;20124;-73
2022/12/19 11:14:33;;;;;;;12.10;7.68;;;;;;;-2.92;72.58;100444.03;5016586;28;20045;-75
2022/12/19 11:16:58;;;;;;;13.48;7.43;;;;;;;-3.02;72.74;100442.31;5000019;28;20526;-72
2022/12/19 11:19:26;;;;;;;11.85;6.00;;;;;;;-2.99;73.02;100434.50;4999954;28;20491;-72
2022/12/19 11:21:50;;;;;;;16.40;8.05;;;;;;;-3.16;73.41;100428.50;5018226;28;20049;-72
2022/12/19 11:24:34;;;;;;;15.80;7.68;;;;;;;-3.03;73.59;100433.63;5038253;28;20513;-73
2022/12/19 11:26:59;;;;;;;12.77;6.50;;;;;;;-2.94;73.40;100440.59;5025026;28;20100;-75
2022/12/19 11:29:43;;;;;;;15.45;7.78;;;;;;;-2.82;73.07;100450.09;5019896;28;20071;-74
2022/12/19 11:32:39;;;;;;;11.48;7.35;;;;;;;-2.84;72.89;100433.56;5037881;28;20131;-74
2022/12/19 11:35:13;;;;;;;;;;;;;;;-2.85;72.62;100453.59;5037514;28;20425;-74
2022/12/19 11:37:51;;;;;;;20.05;7.00;;;;;;;-2.77;73.05;100449.19;5019630;28;19927;-74